sensor_id;sensor_type;location;lat;lon;timestamp;P1;durP1;ratioP1;P2;durP2;ratioP2
17967;SDS011;9109;48.050;11.696;2022-09-27T03:46:50;2.42;;;1.48;;
17967;SDS011;9109;48.050;11.696;2022-09-27T03:49:52;2.80;;;1.60;;
17967;SDS011;9109;48.050;11.696;2022-09-27T03:52:54;2.33;;;1.30;;
17967;SDS011;9109;48.050;11.696;2022-09-27T03:55:56;8.17;;;1.67;;
17967;SDS011;9109;48.050;11.696;2022-09-27T03:59:01;1.77;;;1.47;;
17967;SDS011;9109;48.050;11.696;2022-09-27T04:02:04;3.20;;;1.70;;
17967;SDS011;9109;48.050;11.696;2022-09-27T04:05:07;3.55;;;1.98;;
17967;SDS011;9109;48.050;11.696;2022-09-27T04:08:09;2.17;;;1.60;;
17967;SDS011;9109;48.050;11.696;2022-09-27T04:11:12;4.33;;;1.80;;
17967;SDS011;9109;48.050;11.696;2022-09-27T04:14:15;1.37;;;1.20;;
17967;SDS011;9109;48.050;11.696;2022-09-27T04:17:18;2.17;;;1.50;;
17967;SDS011;9109;48.050;11.696;2022-09-27T04:20:21;9.45;;;1.73;;
17967;SDS011;9109;48.050;11.696;2022-09-27T04:23:37;3.87;;;1.80;;
17967;SDS011;9109;48.050;11.696;2022-09-27T04:26:39;5.78;;;1.77;;
17967;SDS011;9109;48.050;11.696;2022-09-27T04:29:41;2.50;;;1.70;;
17967;SDS011;9109;48.050;11.696;2022-09-27T04:32:48;3.57;;;1.93;;
17967;SDS011;9109;48.050;11.696;2022-09-27T04:36:26;3.77;;;2.20;;
17967;SDS011;9109;48.050;11.696;2022-09-27T04:39:35;11.07;;;1.77;;
17967;SDS011;9109;48.050;11.696;2022-09-27T04:42:48;2.97;;;2.07;;
17967;SDS011;9109;48.050;11.696;2022-09-27T04:45:56;3.40;;;1.90;;
17967;SDS011;9109;48.050;11.696;2022-09-27T04:49:13;3.70;;;2.00;;
17967;SDS011;9109;48.050;11.696;2022-09-27T04:52:32;4.05;;;2.10;;
17967;SDS011;9109;48.050;11.696;2022-09-27T05:02:12;3.57;;;2.00;;
17967;SDS011;9109;48.050;11.696;2022-09-27T05:05:19;4.47;;;1.92;;
17967;SDS011;9109;48.050;11.696;2022-09-27T05:08:25;6.88;;;1.95;;
17967;SDS011;9109;48.050;11.696;2022-09-27T05:11:37;3.05;;;1.90;;
17967;SDS011;9109;48.050;11.696;2022-09-27T05:14:39;11.40;;;1.67;;
17967;SDS011;9109;48.050;11.696;2022-09-27T05:17:41;8.57;;;2.33;;
17967;SDS011;9109;48.050;11.696;2022-09-27T05:20:48;4.10;;;2.07;;
17967;SDS011;9109;48.050;11.696;2022-09-27T05:24:08;3.72;;;1.75;;
17967;SDS011;9109;48.050;11.696;2022-09-27T05:27:43;3.27;;;1.73;;
17967;SDS011;9109;48.050;11.696;2022-09-27T05:30:46;4.28;;;1.77;;
17967;SDS011;9109;48.050;11.696;2022-09-27T05:33:50;2.73;;;1.67;;
17967;SDS011;9109;48.050;11.696;2022-09-27T05:36:57;1.53;;;1.20;;
17967;SDS011;9109;48.050;11.696;2022-09-27T05:40:11;2.30;;;1.40;;
17967;SDS011;9109;48.050;11.696;2022-09-27T05:43:13;1.80;;;1.30;;
17967;SDS011;9109;48.050;11.696;2022-09-27T05:46:16;2.10;;;1.23;;
17967;SDS011;9109;48.050;11.696;2022-09-27T05:49:20;1.23;;;1.07;;
17967;SDS011;9109;48.050;11.696;2022-09-27T05:52:54;1.87;;;1.10;;
17967;SDS011;9109;48.050;11.696;2022-09-27T05:55:59;2.23;;;1.30;;
17967;SDS011;9109;48.050;11.696;2022-09-27T05:59:21;5.50;;;1.13;;
17967;SDS011;9109;48.050;11.696;2022-09-27T06:02:43;1.57;;;1.00;;
17967;SDS011;9109;48.050;11.696;2022-09-27T06:06:00;2.57;;;1.10;;
17967;SDS011;9109;48.050;11.696;2022-09-27T06:12:51;5.50;;;1.00;;
17967;SDS011;9109;48.050;11.696;2022-09-27T06:16:10;3.00;;;1.20;;
17967;SDS011;9109;48.050;11.696;2022-09-27T06:19:14;2.43;;;0.80;;
17967;SDS011;9109;48.050;11.696;2022-09-27T06:22:30;2.03;;;0.80;;
17967;SDS011;9109;48.050;11.696;2022-09-27T06:25:32;1.00;;;0.80;;
17967;SDS011;9109;48.050;11.696;2022-09-27T06:28:36;1.77;;;0.70;;
17967;SDS011;9109;48.050;11.696;2022-09-27T06:31:40;1.90;;;0.90;;
17967;SDS011;9109;48.050;11.696;2022-09-27T06:34:52;2.63;;;1.00;;
17967;SDS011;9109;48.050;11.696;2022-09-27T06:37:54;0.50;;;0.50;;
17967;SDS011;9109;48.050;11.696;2022-09-27T06:40:59;3.87;;;0.80;;
17967;SDS011;9109;48.050;11.696;2022-09-27T06:44:19;2.53;;;0.70;;
17967;SDS011;9109;48.050;11.696;2022-09-27T06:47:22;3.50;;;0.77;;
17967;SDS011;9109;48.050;11.696;2022-09-27T06:50:41;0.67;;;0.60;;
17967;SDS011;9109;48.050;11.696;2022-09-27T06:53:59;1.47;;;0.60;;
17967;SDS011;9109;48.050;11.696;2022-09-27T06:57:01;1.80;;;0.57;;
17967;SDS011;9109;48.050;11.696;2022-09-27T07:00:12;0.60;;;0.60;;
17967;SDS011;9109;48.050;11.696;2022-09-27T07:03:27;3.87;;;0.90;;
17967;SDS011;9109;48.050;11.696;2022-09-27T07:06:34;1.53;;;0.77;;
17967;SDS011;9109;48.050;11.696;2022-09-27T07:09:52;6.83;;;0.93;;
17967;SDS011;9109;48.050;11.696;2022-09-27T07:13:09;3.17;;;0.90;;
17967;SDS011;9109;48.050;11.696;2022-09-27T07:16:16;2.83;;;0.90;;
17967;SDS011;9109;48.050;11.696;2022-09-27T07:19:18;1.10;;;0.67;;
17967;SDS011;9109;48.050;11.696;2022-09-27T07:22:38;2.47;;;0.70;;
17967;SDS011;9109;48.050;11.696;2022-09-27T07:26:13;1.23;;;0.70;;
17967;SDS011;9109;48.050;11.696;2022-09-27T07:29:19;1.70;;;1.10;;
17967;SDS011;9109;48.050;11.696;2022-09-27T07:32:39;2.00;;;0.80;;
17967;SDS011;9109;48.050;11.696;2022-09-27T07:35:51;4.63;;;1.00;;
17967;SDS011;9109;48.050;11.696;2022-09-27T07:39:06;3.27;;;0.93;;
17967;SDS011;9109;48.050;11.696;2022-09-27T07:42:22;3.80;;;1.00;;
17967;SDS011;9109;48.050;11.696;2022-09-27T07:45:43;6.93;;;0.90;;
17967;SDS011;9109;48.050;11.696;2022-09-27T07:49:20;2.30;;;0.90;;
17967;SDS011;9109;48.050;11.696;2022-09-27T07:52:41;3.42;;;1.00;;
17967;SDS011;9109;48.050;11.696;2022-09-27T07:55:51;1.57;;;0.67;;
17967;SDS011;9109;48.050;11.696;2022-09-27T08:02:49;1.63;;;0.60;;
17967;SDS011;9109;48.050;11.696;2022-09-27T08:06:11;1.50;;;0.75;;
17967;SDS011;9109;48.050;11.696;2022-09-27T08:09:18;2.43;;;1.00;;
17967;SDS011;9109;48.050;11.696;2022-09-27T08:12:27;3.83;;;0.90;;
17967;SDS011;9109;48.050;11.696;2022-09-27T08:15:41;1.37;;;0.60;;
17967;SDS011;9109;48.050;11.696;2022-09-27T08:18:47;1.23;;;0.50;;
17967;SDS011;9109;48.050;11.696;2022-09-27T08:21:57;1.27;;;0.60;;
17967;SDS011;9109;48.050;11.696;2022-09-27T08:25:07;1.23;;;0.43;;
17967;SDS011;9109;48.050;11.696;2022-09-27T08:28:32;1.50;;;0.57;;
17967;SDS011;9109;48.050;11.696;2022-09-27T08:31:38;0.87;;;0.50;;
17967;SDS011;9109;48.050;11.696;2022-09-27T08:34:42;6.50;;;0.55;;
17967;SDS011;9109;48.050;11.696;2022-09-27T08:37:53;1.90;;;0.40;;
17967;SDS011;9109;48.050;11.696;2022-09-27T08:40:58;0.67;;;0.57;;
17967;SDS011;9109;48.050;11.696;2022-09-27T08:44:11;0.77;;;0.47;;
17967;SDS011;9109;48.050;11.696;2022-09-27T08:47:24;6.23;;;0.63;;
17967;SDS011;9109;48.050;11.696;2022-09-27T08:50:31;0.87;;;0.50;;
17967;SDS011;9109;48.050;11.696;2022-09-27T08:57:22;6.03;;;0.77;;
17967;SDS011;9109;48.050;11.696;2022-09-27T09:00:28;2.10;;;0.70;;
17967;SDS011;9109;48.050;11.696;2022-09-27T09:03:37;1.63;;;0.67;;
17967;SDS011;9109;48.050;11.696;2022-09-27T09:06:57;0.80;;;0.57;;
17967;SDS011;9109;48.050;11.696;2022-09-27T09:10:55;2.63;;;0.40;;
17967;SDS011;9109;48.050;11.696;2022-09-27T09:18:12;4.07;;;0.53;;
17967;SDS011;9109;48.050;11.696;2022-09-27T09:21:53;3.50;;;0.50;;
17967;SDS011;9109;48.050;11.696;2022-09-27T09:25:15;2.30;;;0.80;;
17967;SDS011;9109;48.050;11.696;2022-09-27T09:28:56;4.27;;;0.60;;
17967;SDS011;9109;48.050;11.696;2022-09-27T09:32:28;3.30;;;0.60;;
17967;SDS011;9109;48.050;11.696;2022-09-27T09:35:44;1.47;;;0.80;;
17967;SDS011;9109;48.050;11.696;2022-09-27T09:39:27;0.97;;;0.50;;
17967;SDS011;9109;48.050;11.696;2022-09-27T09:42:48;0.47;;;0.47;;
17967;SDS011;9109;48.050;11.696;2022-09-27T09:46:24;1.43;;;0.50;;
17967;SDS011;9109;48.050;11.696;2022-09-27T09:50:01;1.43;;;0.60;;
17967;SDS011;9109;48.050;11.696;2022-09-27T09:53:21;0.90;;;0.50;;
17967;SDS011;9109;48.050;11.696;2022-09-27T09:56:37;0.60;;;0.50;;
17967;SDS011;9109;48.050;11.696;2022-09-27T09:59:54;5.38;;;0.70;;
17967;SDS011;9109;48.050;11.696;2022-09-27T10:03:11;0.40;;;0.40;;
17967;SDS011;9109;48.050;11.696;2022-09-27T10:06:17;2.38;;;0.82;;
17967;SDS011;9109;48.050;11.696;2022-09-27T10:09:35;1.33;;;0.60;;
17967;SDS011;9109;48.050;11.696;2022-09-27T10:13:09;4.50;;;0.60;;
17967;SDS011;9109;48.050;11.696;2022-09-27T10:16:18;0.40;;;0.40;;
17967;SDS011;9109;48.050;11.696;2022-09-27T10:19:37;2.35;;;0.57;;
17967;SDS011;9109;48.050;11.696;2022-09-27T10:22:48;0.80;;;0.50;;
17967;SDS011;9109;48.050;11.696;2022-09-27T10:26:04;1.97;;;0.60;;
17967;SDS011;9109;48.050;11.696;2022-09-27T10:29:19;2.23;;;0.77;;
17967;SDS011;9109;48.050;11.696;2022-09-27T10:32:32;1.27;;;0.40;;
17967;SDS011;9109;48.050;11.696;2022-09-27T10:35:59;0.83;;;0.60;;
17967;SDS011;9109;48.050;11.696;2022-09-27T10:39:22;4.43;;;0.60;;
17967;SDS011;9109;48.050;11.696;2022-09-27T10:42:44;2.72;;;0.50;;
17967;SDS011;9109;48.050;11.696;2022-09-27T10:46:24;3.27;;;0.50;;
17967;SDS011;9109;48.050;11.696;2022-09-27T10:49:37;5.07;;;0.50;;
17967;SDS011;9109;48.050;11.696;2022-09-27T10:52:42;1.20;;;0.70;;
17967;SDS011;9109;48.050;11.696;2022-09-27T10:55:52;0.53;;;0.50;;
17967;SDS011;9109;48.050;11.696;2022-09-27T10:59:00;8.07;;;0.80;;
17967;SDS011;9109;48.050;11.696;2022-09-27T11:02:27;0.77;;;0.43;;
17967;SDS011;9109;48.050;11.696;2022-09-27T11:05:38;4.17;;;0.50;;
17967;SDS011;9109;48.050;11.696;2022-09-27T11:08:47;2.97;;;0.50;;
17967;SDS011;9109;48.050;11.696;2022-09-27T11:12:05;1.00;;;0.60;;
17967;SDS011;9109;48.050;11.696;2022-09-27T11:15:19;0.93;;;0.60;;
17967;SDS011;9109;48.050;11.696;2022-09-27T11:18:38;3.57;;;0.60;;
17967;SDS011;9109;48.050;11.696;2022-09-27T11:21:50;1.23;;;0.50;;
17967;SDS011;9109;48.050;11.696;2022-09-27T11:25:24;0.50;;;0.50;;
17967;SDS011;9109;48.050;11.696;2022-09-27T11:28:37;0.57;;;0.57;;
17967;SDS011;9109;48.050;11.696;2022-09-27T11:32:10;0.73;;;0.55;;
17967;SDS011;9109;48.050;11.696;2022-09-27T11:35:43;1.13;;;0.60;;
17967;SDS011;9109;48.050;11.696;2022-09-27T11:39:20;1.77;;;0.60;;
17967;SDS011;9109;48.050;11.696;2022-09-27T11:46:16;1.20;;;0.65;;
17967;SDS011;9109;48.050;11.696;2022-09-27T11:49:44;0.40;;;0.40;;
17967;SDS011;9109;48.050;11.696;2022-09-27T11:53:19;3.50;;;0.43;;
17967;SDS011;9109;48.050;11.696;2022-09-27T11:57:08;0.77;;;0.60;;
17967;SDS011;9109;48.050;11.696;2022-09-27T12:00:36;1.17;;;0.50;;
17967;SDS011;9109;48.050;11.696;2022-09-27T12:07:48;5.82;;;0.60;;
17967;SDS011;9109;48.050;11.696;2022-09-27T12:11:30;2.43;;;1.37;;
17967;SDS011;9109;48.050;11.696;2022-09-27T12:14:44;2.07;;;0.60;;
17967;SDS011;9109;48.050;11.696;2022-09-27T12:18:08;0.50;;;0.43;;
17967;SDS011;9109;48.050;11.696;2022-09-27T12:21:45;1.40;;;0.57;;
17967;SDS011;9109;48.050;11.696;2022-09-27T12:25:10;0.60;;;0.50;;
17967;SDS011;9109;48.050;11.696;2022-09-27T12:28:47;0.50;;;0.50;;
17967;SDS011;9109;48.050;11.696;2022-09-27T13:14:29;3.88;;;0.95;;
17967;SDS011;9109;48.050;11.696;2022-09-27T13:22:06;1.25;;;0.70;;
17967;SDS011;9109;48.050;11.696;2022-09-27T13:25:53;2.70;;;1.00;;
17967;SDS011;9109;48.050;11.696;2022-09-27T14:00:09;3.05;;;0.70;;
17967;SDS011;9109;48.050;11.696;2022-09-27T14:07:35;5.43;;;0.98;;
17967;SDS011;9109;48.050;11.696;2022-09-27T14:15:30;0.47;;;0.40;;
17967;SDS011;9109;48.050;11.696;2022-09-27T14:18:55;1.38;;;0.50;;
17967;SDS011;9109;48.050;11.696;2022-09-27T14:22:31;5.07;;;0.60;;
17967;SDS011;9109;48.050;11.696;2022-09-27T14:25:53;1.30;;;0.60;;
17967;SDS011;9109;48.050;11.696;2022-09-27T14:29:42;0.60;;;0.50;;
17967;SDS011;9109;48.050;11.696;2022-09-27T14:33:36;4.43;;;0.60;;
17967;SDS011;9109;48.050;11.696;2022-09-27T14:41:38;0.77;;;0.60;;
17967;SDS011;9109;48.050;11.696;2022-09-27T15:06:31;3.57;;;0.80;;
17967;SDS011;9109;48.050;11.696;2022-09-27T15:09:56;1.52;;;1.13;;
17967;SDS011;9109;48.050;11.696;2022-09-27T15:13:17;6.85;;;0.80;;
17967;SDS011;9109;48.050;11.696;2022-09-27T15:16:43;1.15;;;0.70;;
17967;SDS011;9109;48.050;11.696;2022-09-27T15:19:59;2.17;;;0.60;;
17967;SDS011;9109;48.050;11.696;2022-09-27T15:23:47;0.70;;;0.70;;
17967;SDS011;9109;48.050;11.696;2022-09-27T15:26:54;2.27;;;0.90;;
17967;SDS011;9109;48.050;11.696;2022-09-27T15:30:18;6.37;;;1.00;;
17967;SDS011;9109;48.050;11.696;2022-09-27T15:37:37;0.73;;;0.63;;
17967;SDS011;9109;48.050;11.696;2022-09-27T15:41:09;1.20;;;0.70;;
17967;SDS011;9109;48.050;11.696;2022-09-27T15:45:19;0.55;;;0.55;;
17967;SDS011;9109;48.050;11.696;2022-09-27T15:49:19;2.60;;;0.70;;
17967;SDS011;9109;48.050;11.696;2022-09-27T15:54:21;2.70;;;0.70;;
17967;SDS011;9109;48.050;11.696;2022-09-27T16:09:15;2.70;;;0.70;;
17967;SDS011;9109;48.050;11.696;2022-09-27T16:12:35;1.02;;;0.50;;
17967;SDS011;9109;48.050;11.696;2022-09-27T16:31:53;1.40;;;0.55;;
17967;SDS011;9109;48.050;11.696;2022-09-27T16:35:26;3.43;;;0.73;;
17967;SDS011;9109;48.050;11.696;2022-09-27T16:38:47;3.42;;;0.68;;
17967;SDS011;9109;48.050;11.696;2022-09-27T16:42:01;1.23;;;0.63;;
17967;SDS011;9109;48.050;11.696;2022-09-27T16:45:20;2.30;;;0.68;;
17967;SDS011;9109;48.050;11.696;2022-09-27T16:49:02;0.93;;;0.80;;
17967;SDS011;9109;48.050;11.696;2022-09-27T16:52:34;1.57;;;0.50;;
17967;SDS011;9109;48.050;11.696;2022-09-27T16:55:59;3.17;;;0.60;;
17967;SDS011;9109;48.050;11.696;2022-09-27T16:59:31;1.25;;;0.60;;
17967;SDS011;9109;48.050;11.696;2022-09-27T17:02:47;1.70;;;0.80;;
17967;SDS011;9109;48.050;11.696;2022-09-27T17:09:57;0.90;;;0.60;;
17967;SDS011;9109;48.050;11.696;2022-09-27T17:13:17;3.67;;;0.80;;
17967;SDS011;9109;48.050;11.696;2022-09-27T18:17:17;2.87;;;0.60;;
17967;SDS011;9109;48.050;11.696;2022-09-27T18:20:53;2.30;;;0.50;;
17967;SDS011;9109;48.050;11.696;2022-09-27T18:24:02;1.17;;;0.67;;
17967;SDS011;9109;48.050;11.696;2022-09-27T18:27:28;1.20;;;0.50;;
17967;SDS011;9109;48.050;11.696;2022-09-27T18:30:47;2.13;;;0.93;;
17967;SDS011;9109;48.050;11.696;2022-09-27T18:38:34;0.63;;;0.50;;
17967;SDS011;9109;48.050;11.696;2022-09-27T18:42:08;3.20;;;0.57;;
17967;SDS011;9109;48.050;11.696;2022-09-27T18:45:35;0.83;;;0.50;;
17967;SDS011;9109;48.050;11.696;2022-09-27T18:49:10;1.60;;;0.63;;
17967;SDS011;9109;48.050;11.696;2022-09-27T18:52:18;0.50;;;0.50;;
17967;SDS011;9109;48.050;11.696;2022-09-27T18:56:08;1.47;;;0.57;;
17967;SDS011;9109;48.050;11.696;2022-09-27T18:59:42;0.40;;;0.40;;
17967;SDS011;9109;48.050;11.696;2022-09-27T19:07:12;0.50;;;0.50;;
17967;SDS011;9109;48.050;11.696;2022-09-27T19:10:25;0.97;;;0.50;;
17967;SDS011;9109;48.050;11.696;2022-09-27T19:21:43;0.50;;;0.50;;
17967;SDS011;9109;48.050;11.696;2022-09-27T19:25:07;1.60;;;0.73;;
17967;SDS011;9109;48.050;11.696;2022-09-27T19:28:51;1.00;;;0.60;;
17967;SDS011;9109;48.050;11.696;2022-09-27T19:32:19;7.53;;;0.77;;
17967;SDS011;9109;48.050;11.696;2022-09-27T19:47:08;1.50;;;0.60;;
17967;SDS011;9109;48.050;11.696;2022-09-27T19:54:21;2.37;;;0.67;;
17967;SDS011;9109;48.050;11.696;2022-09-27T20:37:05;0.40;;;0.40;;
17967;SDS011;9109;48.050;11.696;2022-09-27T20:40:57;0.40;;;0.40;;
17967;SDS011;9109;48.050;11.696;2022-09-27T20:44:39;1.07;;;0.50;;
17967;SDS011;9109;48.050;11.696;2022-09-27T20:48:02;0.33;;;0.33;;
17967;SDS011;9109;48.050;11.696;2022-09-27T20:51:24;1.13;;;0.47;;
17967;SDS011;9109;48.050;11.696;2022-09-27T20:54:44;0.90;;;0.40;;
17967;SDS011;9109;48.050;11.696;2022-09-27T20:58:31;0.30;;;0.30;;
17967;SDS011;9109;48.050;11.696;2022-09-27T21:01:52;0.40;;;0.40;;
17967;SDS011;9109;48.050;11.696;2022-09-27T21:08:34;0.40;;;0.40;;
17967;SDS011;9109;48.050;11.696;2022-09-27T21:11:45;0.40;;;0.40;;
17967;SDS011;9109;48.050;11.696;2022-09-27T21:15:04;0.40;;;0.40;;
17967;SDS011;9109;48.050;11.696;2022-09-27T21:18:24;0.33;;;0.33;;
17967;SDS011;9109;48.050;11.696;2022-09-27T21:21:44;0.50;;;0.43;;
17967;SDS011;9109;48.050;11.696;2022-09-27T21:25:01;0.40;;;0.40;;
17967;SDS011;9109;48.050;11.696;2022-09-27T21:28:24;0.40;;;0.40;;
17967;SDS011;9109;48.050;11.696;2022-09-27T21:31:43;0.50;;;0.50;;
17967;SDS011;9109;48.050;11.696;2022-09-27T21:35:21;0.40;;;0.40;;
17967;SDS011;9109;48.050;11.696;2022-09-27T21:38:42;0.30;;;0.30;;
17967;SDS011;9109;48.050;11.696;2022-09-27T21:42:13;1.13;;;0.60;;
17967;SDS011;9109;48.050;11.696;2022-09-27T21:45:17;0.40;;;0.40;;
17967;SDS011;9109;48.050;11.696;2022-09-27T21:48:42;0.40;;;0.40;;
17967;SDS011;9109;48.050;11.696;2022-09-27T21:52:14;0.87;;;0.43;;
17967;SDS011;9109;48.050;11.696;2022-09-27T21:55:52;0.40;;;0.40;;
17967;SDS011;9109;48.050;11.696;2022-09-27T21:59:24;0.53;;;0.40;;
17967;SDS011;9109;48.050;11.696;2022-09-27T22:06:42;0.40;;;0.40;;
17967;SDS011;9109;48.050;11.696;2022-09-27T22:10:41;3.27;;;0.60;;
17967;SDS011;9109;48.050;11.696;2022-09-27T22:14:11;0.87;;;0.63;;
17967;SDS011;9109;48.050;11.696;2022-09-27T22:17:30;0.60;;;0.60;;
17967;SDS011;9109;48.050;11.696;2022-09-27T22:24:18;0.73;;;0.60;;
17967;SDS011;9109;48.050;11.696;2022-09-27T22:27:39;1.03;;;0.60;;
17967;SDS011;9109;48.050;11.696;2022-09-27T22:35:20;1.33;;;0.43;;
17967;SDS011;9109;48.050;11.696;2022-09-27T22:42:37;0.90;;;0.50;;
17967;SDS011;9109;48.050;11.696;2022-09-27T22:46:06;0.60;;;0.50;;
17967;SDS011;9109;48.050;11.696;2022-09-27T22:49:41;0.70;;;0.50;;
